Terminal Aerodrome Forecast
Issued by NWS Huntsville, AL

Home | Current Version | Previous Version | Text Only | Print | Product List | Glossary On
Versions: 1 2 3 4 5 6 7 8 9 10 11 12 13 14 15 16 17 18
000
FTUS44 KHUN 240535
TAFMSL
TAF
KMSL 240535Z 2406/2506 VRB04KT 6SM -SHRA OVC050
      TEMPO 2406/2408 5SM -SHRA BR OVC025
     FM240800 18008KT 6SM BR VCSH OVC030
      TEMPO 2408/2412 4SM -SHRA OVC020
     FM241200 20012G20KT P6SM VCSH OVC012
     FM241800 20012G20KT P6SM VCSH OVC040 PROB30 2418/2422 4SM -SHRA
      OVC020=

USA.gov is the U.S. government's official web portal to all federal, state and local government web resources and services.